Terminal Aerodrome Forecast
Issued by NWS Green Bay, WI

Home | Current Version | Previous Version | Text Only | Print | Product List | Glossary Off
Versions: 1 2 3 4 5 6 7 8 9 10 11 12 13 14 15 16 17 18 19 20 21 22 23 24 25

597
FTUS43 KGRB 180520
TAFGRB
TAF
KGRB 180520Z 1806/1906 24011G18KT P6SM SKC WS017/29040KT
     FM181400 23011KT P6SM SCT150 BKN250
     FM181700 23009KT P6SM SCT150
     FM190000 24006KT P6SM SCT150=

USA.gov is the U.S. government's official web portal to all federal, state and local government web resources and services.